Time;durP1;ratioP1;P1;durP2;ratioP2;P2;SDS_P1;SDS_P2;PMS_P1;PMS_P2;Temp;Humidity;BMP_temperature;BMP_pressure;BME280_temperature;BME280_humidity;BME280_pressure;Samples;Min_cycle;Max_cycle;Signal;HPM_P1;HPM_P2
2021/05/30 00:02:03;;;;;;;2.20;2.00;;;;;;;24.04;57.45;99313.18;1782259;79;21160;-63
2021/05/30 00:04:30;;;;;;;2.50;2.30;;;;;;;24.02;57.48;99310.72;1775137;79;21100;-62
2021/05/30 00:06:56;;;;;;;2.50;2.30;;;;;;;24.02;57.47;99314.80;1775164;79;21007;-62
2021/05/30 00:09:23;;;;;;;2.40;2.20;;;;;;;24.01;57.49;99313.70;1758486;79;21611;-63
2021/05/30 00:11:49;;;;;;;2.00;1.90;;;;;;;23.99;57.52;99311.28;1798119;79;22120;-63
2021/05/30 00:14:17;;;;;;;2.15;1.95;;;;;;;23.98;57.54;99316.41;1797723;79;21051;-63
2021/05/30 00:16:46;;;;;;;1.92;1.80;;;;;;;23.98;57.59;99311.53;1758102;79;21047;-64
2021/05/30 00:19:12;;;;;;;2.05;1.85;;;;;;;23.95;57.62;99310.16;1778958;79;21003;-62
2021/05/30 00:21:41;;;;;;;1.85;1.75;;;;;;;23.95;57.61;99316.94;1769826;79;21075;-62
2021/05/30 00:24:09;;;;;;;2.20;2.00;;;;;;;23.93;57.63;99316.39;1791674;79;21107;-64
2021/05/30 00:26:35;;;;;;;1.90;1.80;;;;;;;23.92;57.64;99318.84;1788373;79;21118;-63
2021/05/30 00:29:02;;;;;;;1.98;1.87;;;;;;;23.91;57.64;99317.20;1792324;79;21690;-63
2021/05/30 00:31:28;;;;;;;1.95;1.85;;;;;;;23.90;57.67;99318.30;1779518;79;21071;-64
2021/05/30 00:33:55;;;;;;;1.90;1.80;;;;;;;23.89;57.69;99322.08;1769960;79;21115;-63
2021/05/30 00:36:21;;;;;;;2.22;2.02;;;;;;;23.88;57.71;99324.53;1802843;78;21523;-63
2021/05/30 00:38:48;;;;;;;1.95;1.85;;;;;;;23.86;57.77;99320.72;1724405;81;21495;-63
2021/05/30 00:41:15;;;;;;;2.30;2.10;;;;;;;23.85;57.72;99317.72;1720867;81;21123;-64
2021/05/30 00:43:48;;;;;;;2.30;2.10;;;;;;;23.84;57.72;99322.08;1722842;81;21071;-63
2021/05/30 00:46:15;;;;;;;2.42;2.22;;;;;;;23.84;57.73;99312.59;1768141;79;21051;-63
2021/05/30 00:48:42;;;;;;;2.58;1.87;;;;;;;23.81;57.75;99310.39;1771405;79;21065;-65
2021/05/30 00:51:09;;;;;;;2.37;2.22;;;;;;;23.81;57.77;99310.39;1785526;79;21107;-64
2021/05/30 00:53:36;;;;;;;2.33;2.12;;;;;;;23.79;57.81;99316.08;1762662;79;21039;-64
2021/05/30 00:56:08;;;;;;;2.22;2.10;;;;;;;23.78;57.79;99327.16;1777955;79;21630;-63
2021/05/30 00:58:35;;;;;;;2.20;2.00;;;;;;;23.77;57.78;99322.83;1750891;79;21112;-63
2021/05/30 01:01:02;;;;;;;2.05;1.92;;;;;;;23.77;57.81;99322.83;1766133;79;21071;-64
2021/05/30 01:03:29;;;;;;;2.40;1.75;;;;;;;23.72;57.83;99319.02;1778820;79;21084;-63
2021/05/30 01:05:56;;;;;;;2.45;2.25;;;;;;;23.74;57.83;99321.47;1786523;79;21150;-63
2021/05/30 01:08:27;;;;;;;2.20;2.00;;;;;;;23.72;57.85;99319.53;1789757;79;21629;-63
2021/05/30 01:10:59;;;;;;;2.25;2.05;;;;;;;23.70;57.85;99321.17;1776231;79;21023;-63
2021/05/30 01:13:27;;;;;;;2.30;2.10;;;;;;;23.68;57.84;99320.63;1768355;80;21079;-63
2021/05/30 01:15:53;;;;;;;2.02;1.92;;;;;;;23.67;57.87;99327.12;1769859;79;21529;-62
2021/05/30 01:18:22;;;;;;;1.85;1.75;;;;;;;23.66;57.90;99324.15;1745443;80;21083;-62
2021/05/30 01:20:53;;;;;;;2.05;1.95;;;;;;;23.66;57.91;99326.02;1754343;80;21047;-64
2021/05/30 01:23:21;;;;;;;2.08;1.92;;;;;;;23.64;57.92;99326.83;1758217;80;21598;-64
2021/05/30 01:25:47;;;;;;;2.75;2.08;;;;;;;23.64;57.95;99322.76;1772548;80;21607;-64
2021/05/30 01:28:15;;;;;;;2.17;1.92;;;;;;;23.61;57.93;99321.41;1737451;81;21050;-63
2021/05/30 01:30:42;;;;;;;1.82;1.72;;;;;;;23.60;57.94;99319.76;1756852;81;22302;-63
2021/05/30 01:33:09;;;;;;;2.00;1.90;;;;;;;23.60;57.97;99318.40;1724369;82;21182;-63
2021/05/30 01:35:36;;;;;;;2.02;1.80;;;;;;;23.59;57.95;99315.43;1715432;82;21048;-64
2021/05/30 01:38:02;;;;;;;1.80;1.70;;;;;;;23.58;57.96;99318.40;1772204;79;21091;-62
2021/05/30 01:40:29;;;;;;;2.17;2.08;;;;;;;23.57;58.00;99323.56;1762523;79;21691;-63
2021/05/30 01:42:56;;;;;;;2.33;2.12;;;;;;;23.57;58.01;99322.20;1762476;79;21102;-64
2021/05/30 01:45:24;;;;;;;2.08;1.90;;;;;;;23.54;58.02;99322.98;1727369;79;21109;-64
2021/05/30 01:47:52;;;;;;;2.10;1.90;;;;;;;23.53;58.04;99323.27;1768337;79;21610;-65
2021/05/30 01:50:21;;;;;;;2.15;1.95;;;;;;;23.53;58.08;99330.05;1776889;79;21072;-63
2021/05/30 01:52:49;;;;;;;2.85;2.40;;;;;;;23.51;58.10;99328.14;1756195;79;21079;-62
2021/05/30 01:55:24;;;;;;;2.75;1.92;;;;;;;23.51;58.11;99337.63;1772991;79;21122;-64
2021/05/30 01:57:47;;;;;;;2.45;2.25;;;;;;;23.50;58.12;99340.05;1753927;79;21089;-63
2021/05/30 02:00:16;;;;;;;2.52;2.22;;;;;;;23.48;58.13;99336.78;1753080;79;21640;-63
2021/05/30 02:02:54;;;;;;;2.45;2.22;;;;;;;23.48;58.15;99338.14;1722162;82;21114;-63
2021/05/30 02:05:22;;;;;;;2.20;2.00;;;;;;;23.47;58.17;99334.62;1726678;81;21618;-64
2021/05/30 02:07:50;;;;;;;2.22;2.08;;;;;;;23.45;58.16;99332.72;1705639;82;21816;-63
2021/05/30 02:10:18;;;;;;;2.10;2.00;;;;;;;23.44;58.23;99332.97;1717459;81;21529;-63
2021/05/30 02:12:47;;;;;;;3.10;2.40;;;;;;;23.43;58.21;99329.97;1732030;81;21098;-63
2021/05/30 02:15:15;;;;;;;2.40;2.20;;;;;;;23.42;58.24;99330.52;1705849;82;21092;-62
2021/05/30 02:17:42;;;;;;;2.40;2.20;;;;;;;23.43;58.26;99327.27;1707689;83;21107;-64
2021/05/30 02:20:10;;;;;;;2.30;2.10;;;;;;;23.41;58.27;99325.35;1732646;81;22274;-63
2021/05/30 02:22:37;;;;;;;2.20;2.00;;;;;;;23.40;58.30;99324.55;1715725;81;21111;-63
2021/05/30 02:25:05;;;;;;;2.35;2.12;;;;;;;23.40;58.34;99318.31;1749175;81;21056;-63
2021/05/30 02:27:32;;;;;;;2.50;2.30;;;;;;;23.39;58.34;99324.26;1733691;82;21098;-63
2021/05/30 02:29:59;;;;;;;2.33;1.87;;;;;;;23.39;58.38;99324.80;1718145;82;21089;-63
2021/05/30 02:32:25;;;;;;;2.33;2.12;;;;;;;23.39;58.37;99335.64;1724384;81;21867;-63
2021/05/30 02:34:52;;;;;;;1.80;1.70;;;;;;;;;;1715155;81;21098;-63
2021/05/30 02:37:18;;;;;;;2.77;2.20;;;;;;;23.38;58.39;99340.80;1719494;81;21075;-64
2021/05/30 02:39:45;;;;;;;2.65;2.30;;;;;;;23.38;58.38;99336.73;1702455;82;21132;-63
2021/05/30 02:42:12;;;;;;;2.27;2.08;;;;;;;;;;1710583;83;21533;-64
2021/05/30 02:44:39;;;;;;;3.08;2.52;;;;;;;23.36;58.41;99343.77;1723577;81;21123;-63
2021/05/30 02:47:06;;;;;;;2.90;2.60;;;;;;;23.35;58.41;99343.48;1723991;82;21049;-63
2021/05/30 02:49:34;;;;;;;2.40;2.20;;;;;;;23.35;58.42;99350.25;1710588;83;21131;-63
2021/05/30 02:52:01;;;;;;;2.20;2.10;;;;;;;23.35;58.43;99348.38;1724884;81;21409;-64
2021/05/30 02:54:28;;;;;;;2.20;2.00;;;;;;;23.34;58.44;99344.57;1694725;82;21088;-62
2021/05/30 02:56:55;;;;;;;2.50;2.30;;;;;;;23.34;58.46;99342.67;1740771;81;21167;-62
2021/05/30 02:59:22;;;;;;;2.52;2.33;;;;;;;23.34;58.46;99343.22;1718773;82;21148;-62
2021/05/30 03:01:48;;;;;;;2.05;1.92;;;;;;;23.34;58.51;99340.51;1716485;81;22175;-62
2021/05/30 03:04:15;;;;;;;2.22;2.02;;;;;;;23.33;58.50;99345.64;1719147;82;21057;-62
2021/05/30 03:06:41;;;;;;;2.60;2.40;;;;;;;23.33;58.53;99344.28;1728979;82;21052;-63
2021/05/30 03:09:08;;;;;;;2.35;2.15;;;;;;;23.32;58.56;99350.80;1736696;81;21590;-62
2021/05/30 03:11:35;;;;;;;2.33;2.20;;;;;;;23.32;58.54;99354.86;1705095;83;21147;-62
2021/05/30 03:14:01;;;;;;;2.37;2.17;;;;;;;23.31;58.56;99357.28;1718903;81;21099;-65
2021/05/30 03:16:28;;;;;;;3.30;2.02;;;;;;;23.32;58.59;99353.50;1711351;82;21096;-62
2021/05/30 03:18:55;;;;;;;2.55;2.35;;;;;;;23.31;58.58;99355.41;1708182;82;21151;-62
2021/05/30 03:21:22;;;;;;;2.45;2.25;;;;;;;23.30;58.59;99355.12;1709234;83;21802;-63
2021/05/30 03:23:48;;;;;;;2.65;2.33;;;;;;;23.31;58.59;99357.28;1739096;81;21060;-64
2021/05/30 03:26:14;;;;;;;2.40;2.20;;;;;;;23.30;58.65;99364.60;1696635;82;21108;-62
2021/05/30 03:28:42;;;;;;;2.62;2.42;;;;;;;23.30;58.64;99360.53;1708509;81;21067;-62
2021/05/30 03:31:08;;;;;;;3.92;2.70;;;;;;;23.30;58.63;99364.60;1716619;82;21104;-63
2021/05/30 03:33:35;;;;;;;2.60;2.40;;;;;;;23.29;58.67;99358.89;1694439;83;21282;-64
2021/05/30 03:36:05;;;;;;;2.17;2.05;;;;;;;23.31;58.63;99361.34;1724692;81;21111;-63
2021/05/30 03:38:32;;;;;;;3.27;2.42;;;;;;;23.30;58.64;99361.89;1713258;82;21040;-62
2021/05/30 03:41:03;;;;;;;2.60;2.40;;;;;;;23.31;58.62;99361.34;1723629;81;21094;-62
2021/05/30 03:43:29;;;;;;;2.37;2.25;;;;;;;23.31;58.65;99357.28;1705687;82;21038;-63
2021/05/30 03:45:56;;;;;;;3.40;2.50;;;;;;;23.30;58.65;99365.95;1723652;81;21220;-62
2021/05/30 03:48:22;;;;;;;2.83;2.25;;;;;;;23.31;58.63;99367.61;1724191;81;22107;-64
2021/05/30 03:50:49;;;;;;;2.67;2.47;;;;;;;23.32;58.67;99358.38;1737274;81;21572;-62
2021/05/30 03:53:18;;;;;;;2.40;2.20;;;;;;;23.32;58.68;99358.92;1740010;81;21122;-64
2021/05/30 03:55:45;;;;;;;2.90;2.70;;;;;;;23.32;58.69;99360.28;1727429;81;21067;-64
2021/05/30 03:58:12;;;;;;;3.15;2.80;;;;;;;23.32;58.71;99360.28;1730847;81;21087;-64
2021/05/30 04:00:40;;;;;;;2.20;2.00;;;;;;;23.33;58.70;99371.38;1733193;81;21087;-64
2021/05/30 04:03:06;;;;;;;2.55;2.35;;;;;;;23.33;58.72;99369.52;1736067;81;22193;-65
2021/05/30 04:05:33;;;;;;;2.62;2.15;;;;;;;23.33;58.74;99374.94;1734126;81;21075;-65
2021/05/30 04:08:01;;;;;;;2.42;2.22;;;;;;;23.34;58.72;99371.67;1747026;81;21015;-63
2021/05/30 04:10:28;;;;;;;2.45;2.25;;;;;;;23.35;58.74;99380.06;1736292;81;22238;-64
2021/05/30 04:12:54;;;;;;;2.42;2.22;;;;;;;23.35;58.74;99381.42;1770967;79;21023;-64
2021/05/30 04:15:20;;;;;;;2.47;2.27;;;;;;;23.36;58.73;99381.72;1766587;79;21127;-63
2021/05/30 04:17:47;;;;;;;2.67;2.40;;;;;;;;;;1766519;79;21574;-64
2021/05/30 04:20:16;;;;;;;2.65;2.45;;;;;;;;;;1760761;80;21051;-65
2021/05/30 04:22:44;;;;;;;2.55;2.35;;;;;;;23.36;58.73;99372.23;1763728;79;21075;-63
2021/05/30 04:25:12;;;;;;;2.65;2.35;;;;;;;23.35;58.75;99367.36;1797364;79;21115;-63
2021/05/30 04:27:38;;;;;;;2.62;2.42;;;;;;;;;;1782202;79;21077;-64
2021/05/30 04:30:07;;;;;;;2.72;2.47;;;;;;;23.37;58.79;99358.94;1781499;79;21083;-63
2021/05/30 04:32:33;;;;;;;2.40;2.30;;;;;;;23.37;58.80;99365.72;1772366;79;21103;-64
2021/05/30 04:35:01;;;;;;;2.87;2.55;;;;;;;23.39;58.78;99360.03;1784711;79;21046;-65
2021/05/30 04:37:27;;;;;;;2.52;2.33;;;;;;;23.39;58.79;99364.91;1795224;78;21596;-64
2021/05/30 04:39:53;;;;;;;2.52;2.30;;;;;;;23.40;58.84;99360.33;1784430;78;21959;-63
2021/05/30 04:42:20;;;;;;;2.35;2.15;;;;;;;23.40;58.84;99365.75;1791272;78;21063;-64
2021/05/30 04:44:47;;;;;;;2.87;2.22;;;;;;;23.41;58.83;99363.30;1799612;78;21070;-63
2021/05/30 04:47:13;;;;;;;2.12;1.95;;;;;;;23.42;58.83;99366.30;1789775;79;21611;-64
2021/05/30 04:49:41;;;;;;;2.98;2.40;;;;;;;23.43;58.86;99367.92;1808931;78;21058;-65
2021/05/30 04:52:08;;;;;;;2.80;2.02;;;;;;;23.44;58.86;99362.79;1801770;78;21078;-64
2021/05/30 04:54:35;;;;;;;2.42;2.22;;;;;;;23.44;58.87;99371.73;1790766;78;21087;-63
2021/05/30 04:57:02;;;;;;;2.20;2.00;;;;;;;23.45;58.89;99376.09;1787248;78;21126;-63
2021/05/30 04:59:30;;;;;;;2.55;2.30;;;;;;;23.45;58.96;99377.44;1790651;78;22414;-64
2021/05/30 05:01:56;;;;;;;2.47;2.27;;;;;;;23.47;58.95;99379.87;1799351;78;21048;-65
2021/05/30 05:04:24;;;;;;;2.60;2.40;;;;;;;23.47;58.94;99373.93;1780530;78;21114;-65
2021/05/30 05:06:50;;;;;;;2.37;2.20;;;;;;;23.48;58.99;99366.61;1797662;78;21084;-64
2021/05/30 05:09:18;;;;;;;2.55;2.35;;;;;;;23.48;58.93;99366.61;1800915;78;21066;-65
2021/05/30 05:11:45;;;;;;;3.00;2.20;;;;;;;23.47;58.96;99371.22;1792068;78;21082;-64
2021/05/30 05:14:11;;;;;;;2.40;2.20;;;;;;;23.48;59.04;99366.05;1788775;78;21670;-64
2021/05/30 05:16:38;;;;;;;2.20;2.00;;;;;;;23.48;59.02;99361.99;1794442;79;21062;-63
2021/05/30 05:19:05;;;;;;;2.58;2.37;;;;;;;23.50;58.99;99363.90;1779454;79;21066;-63
2021/05/30 05:21:33;;;;;;;2.58;2.37;;;;;;;23.52;58.97;99367.70;1770289;78;21975;-64
2021/05/30 05:23:59;;;;;;;2.60;2.40;;;;;;;23.52;59.03;99367.16;1786529;78;21650;-63
2021/05/30 05:26:25;;;;;;;2.47;2.27;;;;;;;23.53;59.05;99353.90;1795449;78;21094;-62
2021/05/30 05:28:53;;;;;;;2.92;2.42;;;;;;;23.53;59.04;99353.90;1778622;78;21597;-62
2021/05/30 05:31:20;;;;;;;2.37;2.17;;;;;;;23.55;59.10;99352.28;1799512;78;21090;-64
2021/05/30 05:33:47;;;;;;;2.37;2.17;;;;;;;23.58;59.15;99355.00;1791392;78;21558;-64
2021/05/30 05:36:16;;;;;;;2.50;2.30;;;;;;;23.58;59.14;99343.61;1788032;78;21050;-63
2021/05/30 05:38:43;;;;;;;2.60;2.40;;;;;;;23.60;59.16;99342.80;1726968;81;21127;-63
2021/05/30 05:41:12;;;;;;;2.25;2.12;;;;;;;23.61;59.15;99344.45;1728969;81;21064;-64
2021/05/30 05:43:39;;;;;;;2.40;2.20;;;;;;;23.63;59.20;99343.64;1707397;83;21079;-64
2021/05/30 05:46:05;;;;;;;2.20;2.10;;;;;;;23.65;59.10;99336.06;1755083;81;21633;-64
2021/05/30 05:48:32;;;;;;;2.10;2.00;;;;;;;23.65;59.16;99333.34;1753196;81;21178;-63
2021/05/30 05:50:58;;;;;;;3.02;2.27;;;;;;;23.69;59.16;99341.77;1748121;81;21142;-63
2021/05/30 05:53:25;;;;;;;2.83;2.62;;;;;;;23.70;59.14;99344.75;1751548;81;21058;-64
2021/05/30 05:55:51;;;;;;;2.37;2.05;;;;;;;23.73;59.23;99343.68;1729552;81;21615;-64
2021/05/30 05:58:18;;;;;;;2.37;2.17;;;;;;;23.76;59.21;99343.72;1729260;81;21075;-64
2021/05/30 06:00:45;;;;;;;2.50;2.30;;;;;;;23.79;59.20;99340.48;1726566;81;21098;-64
2021/05/30 06:03:11;;;;;;;2.33;2.12;;;;;;;23.81;59.23;99342.39;1715298;81;21059;-65
2021/05/30 06:05:38;;;;;;;2.47;2.27;;;;;;;23.82;59.21;99342.67;1750976;81;21019;-62
2021/05/30 06:08:04;;;;;;;2.65;2.45;;;;;;;23.85;59.21;99350.81;1741322;81;21574;-64
2021/05/30 06:10:31;;;;;;;3.20;2.00;;;;;;;23.87;59.27;99354.08;1725890;81;21621;-64
2021/05/30 06:13:03;;;;;;;2.22;2.12;;;;;;;23.89;59.24;99354.11;1736923;81;21653;-63
2021/05/30 06:15:30;;;;;;;2.40;2.20;;;;;;;23.90;59.17;99348.13;1730435;81;21094;-64
2021/05/30 06:17:59;;;;;;;2.58;2.37;;;;;;;23.92;59.22;99356.27;1738436;81;21044;-64
2021/05/30 06:20:26;;;;;;;2.12;2.00;;;;;;;23.94;59.29;99356.02;1728871;81;21098;-64
2021/05/30 06:22:54;;;;;;;2.20;2.00;;;;;;;23.97;59.24;99355.49;1728164;81;21125;-64
2021/05/30 06:25:21;;;;;;;2.17;2.00;;;;;;;23.98;59.24;99353.04;1731524;81;21698;-63
2021/05/30 06:27:49;;;;;;;3.45;2.37;;;;;;;24.01;59.26;99354.39;1753678;80;21625;-63
2021/05/30 06:30:18;;;;;;;2.33;2.10;;;;;;;24.02;59.19;99355.48;1709355;81;21099;-64
2021/05/30 06:32:45;;;;;;;2.15;2.05;;;;;;;24.05;59.21;99359.04;1723667;81;21075;-64
2021/05/30 06:35:11;;;;;;;2.80;2.20;;;;;;;24.07;59.19;99360.14;1739166;80;21594;-64
2021/05/30 06:37:39;;;;;;;2.80;2.60;;;;;;;24.09;59.18;99373.70;1737689;81;21798;-63
2021/05/30 06:40:08;;;;;;;3.08;2.15;;;;;;;24.12;59.19;99370.98;1781194;79;21072;-68
2021/05/30 06:42:35;;;;;;;2.00;1.90;;;;;;;24.16;59.17;99377.51;1777201;79;21091;-63
2021/05/30 06:45:02;;;;;;;2.17;1.98;;;;;;;24.21;59.20;99379.44;1779325;79;21071;-63
2021/05/30 06:47:29;;;;;;;3.83;2.47;;;;;;;24.25;59.19;99375.11;1771954;79;21114;-64
2021/05/30 06:49:56;;;;;;;2.50;2.30;;;;;;;24.27;59.12;99379.17;1760643;79;21090;-65
2021/05/30 06:52:23;;;;;;;1.87;1.77;;;;;;;24.32;59.09;99382.47;1765709;79;21088;-67
2021/05/30 06:54:51;;;;;;;2.15;1.95;;;;;;;24.36;59.05;99378.65;1765074;79;21118;-64
2021/05/30 06:57:17;;;;;;;2.42;2.22;;;;;;;24.41;59.04;99390.34;1769352;79;21116;-63
2021/05/30 06:59:44;;;;;;;3.05;2.60;;;;;;;24.44;59.79;99387.09;1752551;79;21001;-63
2021/05/30 07:02:11;;;;;;;2.75;2.33;;;;;;;24.48;59.58;99387.38;1754666;79;21702;-63
2021/05/30 07:04:38;;;;;;;5.05;2.60;;;;;;;24.52;59.47;99392.57;1771418;80;21051;-65
2021/05/30 07:07:05;;;;;;;4.40;2.98;;;;;;;24.56;59.97;99387.42;1770674;79;21093;-63
2021/05/30 07:09:32;;;;;;;5.10;3.00;;;;;;;24.61;60.49;99390.13;1772526;79;21047;-65
2021/05/30 07:11:58;;;;;;;7.62;3.37;;;;;;;24.66;60.77;99391.50;1752974;79;21034;-65
2021/05/30 07:14:25;;;;;;;4.60;2.92;;;;;;;24.70;60.86;99387.16;1771822;80;21057;-64
2021/05/30 07:16:55;;;;;;;6.10;3.12;;;;;;;24.77;60.85;99389.63;1776111;80;21045;-64
2021/05/30 07:19:21;;;;;;;7.35;3.10;;;;;;;24.84;60.85;99398.30;1762864;80;21582;-63
2021/05/30 07:21:48;;;;;;;3.70;2.92;;;;;;;24.89;60.65;99396.41;1762342;80;21063;-64
2021/05/30 07:24:15;;;;;;;5.62;2.90;;;;;;;24.95;60.50;99399.95;1767622;80;21087;-64
2021/05/30 07:26:42;;;;;;;3.52;2.60;;;;;;;25.00;60.39;99399.15;1760366;80;21152;-64
2021/05/30 07:29:09;;;;;;;7.83;2.98;;;;;;;25.05;60.16;99401.33;1768871;80;21145;-65
2021/05/30 07:31:36;;;;;;;3.77;3.00;;;;;;;25.10;60.10;99404.58;1780357;80;21550;-64
2021/05/30 07:34:02;;;;;;;4.22;2.90;;;;;;;25.15;60.02;99405.10;1778483;80;21024;-65
2021/05/30 07:36:31;;;;;;;4.62;3.05;;;;;;;25.19;59.88;99404.83;1765032;80;21126;-64
2021/05/30 07:38:59;;;;;;;5.17;2.62;;;;;;;25.23;59.81;99402.70;1764774;80;21095;-63
2021/05/30 07:41:26;;;;;;;3.30;2.60;;;;;;;25.26;59.76;99404.85;1740945;80;21563;-64
2021/05/30 07:43:53;;;;;;;3.35;2.30;;;;;;;25.29;59.70;99404.31;1761773;80;21551;-64
2021/05/30 07:46:19;;;;;;;3.17;2.30;;;;;;;25.32;59.57;99409.73;1752258;80;21071;-64
2021/05/30 07:48:46;;;;;;;3.83;2.75;;;;;;;25.34;59.42;99414.91;1761885;80;21603;-63
2021/05/30 07:51:12;;;;;;;4.10;2.92;;;;;;;25.36;59.41;99414.90;1762191;80;21681;-65
2021/05/30 07:53:39;;;;;;;4.33;2.55;;;;;;;25.39;59.27;99418.99;1765797;80;21081;-64
2021/05/30 07:56:06;;;;;;;2.47;2.12;;;;;;;25.40;59.15;99422.80;1762431;80;21019;-64
2021/05/30 07:58:34;;;;;;;2.77;2.40;;;;;;;25.42;59.08;99429.30;1747728;80;21352;-64
2021/05/30 08:01:01;;;;;;;3.92;2.60;;;;;;;25.44;58.98;99423.05;1765893;80;21067;-64
2021/05/30 08:03:27;;;;;;;3.75;2.45;;;;;;;25.45;58.95;99424.14;1750721;80;21134;-64
2021/05/30 08:05:55;;;;;;;2.77;2.30;;;;;;;25.47;58.90;99417.88;1747556;80;21103;-64
2021/05/30 08:08:22;;;;;;;3.10;2.37;;;;;;;25.49;58.84;99410.81;1773130;80;21048;-64
2021/05/30 08:10:51;;;;;;;2.98;2.67;;;;;;;25.53;58.76;99412.44;1774954;80;21123;-64
2021/05/30 08:13:17;;;;;;;3.08;2.30;;;;;;;25.55;58.71;99415.14;1774090;80;21099;-63
2021/05/30 08:15:44;;;;;;;2.67;2.47;;;;;;;25.58;58.60;99415.97;1767472;80;21192;-63
2021/05/30 08:18:12;;;;;;;3.22;2.30;;;;;;;25.60;58.56;99415.14;1765066;80;21139;-63
2021/05/30 08:20:39;;;;;;;2.92;2.33;;;;;;;25.62;58.55;99418.95;1750029;80;21059;-66
2021/05/30 08:23:05;;;;;;;2.58;2.37;;;;;;;25.64;58.43;99414.86;1752251;80;21025;-64
2021/05/30 08:25:32;;;;;;;2.85;2.65;;;;;;;25.67;58.40;99416.20;1742037;80;21086;-65
2021/05/30 08:27:59;;;;;;;3.65;2.40;;;;;;;25.69;58.25;99418.09;1767637;80;21113;-66
2021/05/30 08:30:26;;;;;;;2.67;2.47;;;;;;;25.72;58.29;99417.56;1747181;80;21536;-64
2021/05/30 08:32:52;;;;;;;5.15;2.25;;;;;;;25.74;58.21;99415.38;1738222;80;21063;-65
2021/05/30 08:35:19;;;;;;;3.22;2.37;;;;;;;25.75;58.13;99418.91;1771370;79;21671;-66
2021/05/30 08:37:47;;;;;;;4.83;2.50;;;;;;;25.75;58.09;99414.30;1781253;79;21581;-65
2021/05/30 08:40:17;;;;;;;3.52;2.30;;;;;;;25.76;58.04;99417.83;1784296;79;21297;-65
2021/05/30 08:42:47;;;;;;;2.90;2.15;;;;;;;25.77;57.99;99424.36;1774484;79;21661;-66
2021/05/30 08:45:14;;;;;;;2.92;2.15;;;;;;;25.78;57.96;99415.64;1771950;79;21084;-67
2021/05/30 08:47:41;;;;;;;4.05;2.08;;;;;;;25.77;57.92;99417.56;1772284;79;21639;-65
2021/05/30 08:50:09;;;;;;;2.85;2.12;;;;;;;25.79;57.92;99426.81;1766650;79;21119;-66
2021/05/30 08:52:36;;;;;;;6.78;2.45;;;;;;;25.78;57.82;99426.53;1783102;79;22011;-66
2021/05/30 08:55:04;;;;;;;2.05;1.85;;;;;;;25.79;57.90;99429.53;1784425;79;21060;-66
2021/05/30 08:57:31;;;;;;;2.22;1.90;;;;;;;25.80;57.92;99433.31;1785346;79;21051;-68
2021/05/30 08:59:57;;;;;;;2.80;2.08;;;;;;;25.80;57.83;99425.70;1790134;79;21091;-66
2021/05/30 09:02:24;;;;;;;2.20;2.00;;;;;;;25.80;57.83;99437.39;1793610;79;20999;-66
2021/05/30 09:04:55;;;;;;;3.10;2.22;;;;;;;25.82;57.81;99429.77;1768400;79;21079;-66
2021/05/30 09:07:44;;;;;;;2.35;2.00;;;;;;;25.83;57.79;99436.05;1780155;79;21075;-64
2021/05/30 09:10:26;;;;;;;2.10;1.90;;;;;;;25.81;57.77;99434.15;1783042;79;21094;-64
2021/05/30 09:13:13;;;;;;;2.55;2.00;;;;;;;25.80;57.81;99439.30;1779318;79;21578;-64
2021/05/30 09:18:19;;;;;;;2.12;1.92;;;;;;;25.78;57.80;99455.09;1776632;79;21078;-64
2021/05/30 09:21:08;;;;;;;2.20;2.05;;;;;;;25.75;57.80;99455.62;1791984;79;21070;-65
2021/05/30 09:23:41;;;;;;;3.27;2.00;;;;;;;25.75;57.81;99459.71;1786186;78;21562;-66
2021/05/30 09:26:20;;;;;;;2.17;1.75;;;;;;;25.72;57.83;99458.37;1795299;78;21122;-65
2021/05/30 09:29:07;;;;;;;2.12;1.90;;;;;;;25.70;57.84;99462.72;1769092;78;21046;-66
2021/05/30 09:31:57;;;;;;;2.02;1.82;;;;;;;25.68;57.84;99462.17;1793765;78;21128;-65
2021/05/30 09:34:29;;;;;;;2.47;2.27;;;;;;;25.67;57.87;99466.52;1771443;78;21086;-67
2021/05/30 09:36:56;;;;;;;1.90;1.70;;;;;;;25.65;57.89;99465.98;1747436;81;21565;-65
2021/05/30 09:39:39;;;;;;;2.75;1.90;;;;;;;25.65;57.92;99468.70;1739204;81;21157;-65
2021/05/30 09:42:34;;;;;;;2.65;1.80;;;;;;;25.63;57.92;99469.01;1731173;82;21025;-66
2021/05/30 09:45:10;;;;;;;2.22;2.02;;;;;;;25.63;57.94;99469.01;1737648;81;21656;-67
2021/05/30 09:47:44;;;;;;;3.35;2.50;;;;;;;25.62;57.96;99467.91;1732885;81;21156;-65
2021/05/30 09:50:18;;;;;;;1.92;1.82;;;;;;;25.61;57.96;99475.27;1736293;81;21670;-65
2021/05/30 09:52:49;;;;;;;;;;;;;;;25.62;57.94;99480.16;1739147;82;21597;-64
2021/05/30 09:55:28;;;;;;;2.75;1.90;;;;;;;25.62;57.95;99472.80;1728078;82;20645;-64
2021/05/30 09:58:14;;;;;;;1.77;1.67;;;;;;;25.55;58.06;99468.17;1728354;81;21679;-64
2021/05/30 10:00:42;;;;;;;1.90;1.80;;;;;;;25.57;58.09;99474.70;1729672;81;21090;-65
2021/05/30 10:03:09;;;;;;;1.90;1.80;;;;;;;25.56;58.09;99478.53;1719610;81;21618;-65
2021/05/30 10:05:36;;;;;;;1.72;1.62;;;;;;;25.56;58.05;99479.34;1702877;83;21130;-67
2021/05/30 10:08:04;;;;;;;2.40;1.95;;;;;;;25.56;58.03;99483.42;1727620;83;21637;-63
2021/05/30 10:10:32;;;;;;;2.12;1.72;;;;;;;25.56;58.01;99487.50;1705082;82;21137;-65
2021/05/30 10:13:02;;;;;;;2.52;1.95;;;;;;;25.57;58.00;99491.03;1712512;83;21171;-65
2021/05/30 10:15:29;;;;;;;1.80;1.70;;;;;;;25.57;57.98;99486.39;1716488;83;21083;-64
2021/05/30 10:18:00;;;;;;;1.82;1.72;;;;;;;25.57;57.92;99493.75;1728054;83;21705;-65
2021/05/30 10:20:27;;;;;;;1.85;1.75;;;;;;;25.59;57.92;99487.48;1715272;83;21062;-65
2021/05/30 10:22:55;;;;;;;1.85;1.72;;;;;;;25.60;57.92;99493.21;1696445;83;21133;-64
2021/05/30 10:25:33;;;;;;;1.70;1.60;;;;;;;25.59;57.85;99501.89;1717761;83;21196;-65
2021/05/30 10:28:20;;;;;;;3.30;1.98;;;;;;;25.59;57.82;99499.17;1714597;83;21059;-64
2021/05/30 10:30:51;;;;;;;3.72;1.75;;;;;;;25.59;57.83;99508.69;1725980;83;21058;-66
2021/05/30 10:33:24;;;;;;;1.90;1.80;;;;;;;25.59;57.84;99500.53;1717450;81;21110;-64
2021/05/30 10:35:56;;;;;;;1.80;1.70;;;;;;;25.59;57.88;99510.05;1731210;80;21915;-64
2021/05/30 10:38:43;;;;;;;2.10;1.90;;;;;;;25.60;57.84;99518.50;1775197;80;21101;-63
2021/05/30 10:41:15;;;;;;;1.77;1.67;;;;;;;25.59;57.79;99515.50;1768110;80;21107;-65
2021/05/30 10:43:41;;;;;;;2.15;2.05;;;;;;;25.59;57.77;99520.94;1760510;80;21066;-65
2021/05/30 10:46:09;;;;;;;2.33;1.70;;;;;;;25.59;57.76;99524.20;1772692;80;21076;-63
2021/05/30 10:48:38;;;;;;;1.60;1.50;;;;;;;25.58;57.73;99523.39;1749597;80;21085;-63
2021/05/30 10:51:55;;;;;;;1.70;1.60;;;;;;;25.62;57.76;99523.12;1868074;75;22544;-66
2021/05/30 10:54:22;;;;;;;2.47;1.90;;;;;;;25.57;57.73;99528.55;1777359;78;20955;-64
2021/05/30 10:56:57;;;;;;;1.67;1.57;;;;;;;25.58;57.73;99525.31;1797830;78;21854;-64
2021/05/30 10:59:25;;;;;;;3.05;1.87;;;;;;;25.57;57.74;99524.47;1794389;79;21067;-65
2021/05/30 11:01:55;;;;;;;1.70;1.60;;;;;;;25.57;57.68;99523.11;1771825;79;20959;-64
2021/05/30 11:04:34;;;;;;;1.57;1.47;;;;;;;25.57;57.69;99527.19;1765605;80;21028;-65
2021/05/30 11:07:20;;;;;;;2.10;1.90;;;;;;;25.56;57.67;99524.77;1783644;78;20999;-65
2021/05/30 11:10:01;;;;;;;1.60;1.50;;;;;;;25.57;57.70;99529.11;1800019;78;21087;-64
2021/05/30 11:12:32;;;;;;;1.82;1.72;;;;;;;25.55;57.70;99523.93;1773720;78;21059;-64
2021/05/30 11:15:16;;;;;;;1.90;1.80;;;;;;;25.54;57.76;99527.75;1799284;78;20932;-64
2021/05/30 11:17:49;;;;;;;1.62;1.52;;;;;;;25.54;57.75;99522.87;1768166;78;21114;-65
2021/05/30 11:20:43;;;;;;;2.52;1.82;;;;;;;25.53;57.81;99527.47;1782529;79;21554;-65
2021/05/30 11:23:16;;;;;;;1.98;1.87;;;;;;;25.52;57.77;99532.66;1789390;79;21118;-66
2021/05/30 11:25:55;;;;;;;2.45;1.75;;;;;;;25.51;57.80;99533.73;1780730;79;21736;-65
2021/05/30 11:28:27;;;;;;;1.52;1.42;;;;;;;25.48;57.84;99539.17;1797327;79;21044;-64
2021/05/30 11:31:03;;;;;;;1.77;1.67;;;;;;;25.49;57.87;99537.27;1786621;79;21114;-64
2021/05/30 11:33:42;;;;;;;1.55;1.45;;;;;;;25.48;57.91;99533.73;1784498;79;21585;-64
2021/05/30 11:36:21;;;;;;;1.65;1.55;;;;;;;25.48;57.93;99550.60;1773654;79;21579;-64
2021/05/30 11:38:57;;;;;;;1.72;1.62;;;;;;;25.47;57.96;99559.28;1795858;79;21594;-65
2021/05/30 11:41:49;;;;;;;2.00;1.80;;;;;;;25.47;57.92;99562.00;1794790;79;21110;-64
2021/05/30 11:44:21;;;;;;;1.60;1.50;;;;;;;25.47;57.98;99563.36;1772620;79;21100;-64
2021/05/30 11:46:58;;;;;;;1.60;1.50;;;;;;;25.46;58.01;99569.09;1779522;79;21571;-65
2021/05/30 11:49:30;;;;;;;1.70;1.60;;;;;;;25.45;58.01;99563.37;1794231;78;21419;-65